createdAt,value
2023-04-15T00:00:16.613Z,1.92
2023-04-15T00:03:41.074Z,1.75
2023-04-15T00:07:03.911Z,2.03
2023-04-15T00:10:26.571Z,2.65
2023-04-15T00:13:49.935Z,2.72
2023-04-15T00:17:12.976Z,2.20
2023-04-15T00:20:38.107Z,1.83
2023-04-15T00:24:00.872Z,2.20
2023-04-15T00:27:23.549Z,2.85
2023-04-15T00:30:47.834Z,1.90
2023-04-15T00:34:12.100Z,2.00
2023-04-15T00:37:37.319Z,2.00
2023-04-15T00:41:01.500Z,2.33
2023-04-15T00:44:24.149Z,1.70
2023-04-15T00:47:48.791Z,1.85
2023-04-15T00:51:12.942Z,1.65
2023-04-15T00:54:38.156Z,1.85
2023-04-15T00:58:02.257Z,2.00
2023-04-15T01:01:27.377Z,1.63
2023-04-15T01:04:50.988Z,1.20
2023-04-15T01:08:15.417Z,1.55
2023-04-15T01:11:41.146Z,1.35
2023-04-15T01:15:04.989Z,1.98
2023-04-15T01:18:28.913Z,1.90
2023-04-15T01:21:52.378Z,1.40
2023-04-15T01:25:21.184Z,1.45
2023-04-15T01:28:48.542Z,1.40
2023-04-15T01:32:11.802Z,1.50
2023-04-15T01:35:34.663Z,1.67
2023-04-15T01:38:59.229Z,1.23
2023-04-15T01:42:24.268Z,1.50
2023-04-15T01:45:49.182Z,1.50
2023-04-15T01:49:12.140Z,1.90
2023-04-15T01:52:35.098Z,1.50
2023-04-15T01:55:58.012Z,1.50
2023-04-15T01:59:21.427Z,1.10
2023-04-15T02:02:45.530Z,1.05
2023-04-15T02:06:08.375Z,1.20
2023-04-15T02:09:32.254Z,1.33
2023-04-15T02:12:55.523Z,1.08
2023-04-15T02:16:23.018Z,1.08
2023-04-15T02:19:47.177Z,1.30
2023-04-15T07:09:46.883Z,1.83
2023-04-15T07:13:10.334Z,1.60
2023-04-15T07:16:32.559Z,1.88
2023-04-15T08:24:04.047Z,1.90
2023-04-15T08:27:26.244Z,2.08
2023-04-15T08:36:15.282Z,2.45
2023-04-15T08:39:39.376Z,2.00
2023-04-15T08:52:56.753Z,2.72
2023-04-15T09:01:14.111Z,2.25
2023-04-15T09:09:30.664Z,2.13
2023-04-15T09:12:52.905Z,2.40
2023-04-15T09:16:16.382Z,2.50
2023-04-15T09:29:51.873Z,3.08
2023-04-15T09:33:56.249Z,3.13
2023-04-15T09:56:43.183Z,2.78
2023-04-15T10:00:06.680Z,2.60
2023-04-15T10:04:29.816Z,3.08
2023-04-15T10:07:52.201Z,3.05
2023-04-15T10:50:01.696Z,3.88
2023-04-15T10:58:17.565Z,3.38
2023-04-15T11:02:29.492Z,3.80
2023-04-15T11:15:49.254Z,2.92
2023-04-15T11:19:40.575Z,3.47
2023-04-15T11:27:58.878Z,4.30
2023-04-15T11:40:57.410Z,4.10
2023-04-15T11:44:19.876Z,3.58
2023-04-15T12:12:08.391Z,3.72
2023-04-15T12:15:30.519Z,3.40
2023-04-15T12:18:55.313Z,3.22
2023-04-15T12:27:55.145Z,3.47
2023-04-15T12:46:28.658Z,3.20
2023-04-15T12:59:31.714Z,3.45
2023-04-15T13:13:39.051Z,2.92
2023-04-15T13:27:04.638Z,3.80
2023-04-15T14:09:48.513Z,4.10
2023-04-15T14:13:11.997Z,3.42
2023-04-15T14:16:34.514Z,3.15
2023-04-15T14:19:56.500Z,2.72
2023-04-15T14:23:18.183Z,3.15
2023-04-15T14:26:40.001Z,3.22
2023-04-15T14:30:03.347Z,3.33
2023-04-15T14:33:25.249Z,3.42
2023-04-15T14:36:47.121Z,3.45
2023-04-15T14:40:10.628Z,3.60
2023-04-15T14:43:36.576Z,2.63
2023-04-15T14:47:02.438Z,3.55
2023-04-15T14:50:24.333Z,3.30
2023-04-15T14:53:46.743Z,3.20
2023-04-15T14:57:10.136Z,3.42
2023-04-15T15:00:32.185Z,4.00
2023-04-15T15:03:55.864Z,3.70
2023-04-15T15:07:17.700Z,4.32
2023-04-15T15:10:49.057Z,5.10
2023-04-15T15:14:12.142Z,3.28
2023-04-15T15:17:34.497Z,3.40
2023-04-15T15:20:58.130Z,3.40
2023-04-15T15:24:20.397Z,3.40
2023-04-15T15:27:42.682Z,3.30
2023-04-15T15:31:05.496Z,3.72
2023-04-15T15:34:27.242Z,3.63
2023-04-15T15:37:50.513Z,3.80
2023-04-15T15:41:13.407Z,3.42
2023-04-15T15:44:36.486Z,3.55
2023-04-15T15:47:59.428Z,3.63
2023-04-15T15:51:22.360Z,7.90
2023-04-15T15:54:45.952Z,3.38
2023-04-15T15:58:07.939Z,2.53
2023-04-15T16:01:30.113Z,3.53
2023-04-15T16:04:52.745Z,3.95
2023-04-15T16:08:14.716Z,3.55
2023-04-15T16:11:41.513Z,3.78
2023-04-15T16:15:04.399Z,4.47
2023-04-15T16:18:26.471Z,3.42
2023-04-15T16:21:48.315Z,2.90
2023-04-15T16:25:10.860Z,2.40
2023-04-15T16:28:34.570Z,3.10
2023-04-15T16:31:57.235Z,3.30
2023-04-15T16:35:19.420Z,2.78
2023-04-15T16:38:41.221Z,2.80
2023-04-15T16:42:03.629Z,3.50
2023-04-15T16:45:27.109Z,2.70
2023-04-15T16:48:49.198Z,2.72
2023-04-15T16:52:11.280Z,2.08
2023-04-15T16:55:33.136Z,3.63
2023-04-15T16:58:55.163Z,2.85
2023-04-15T17:02:18.630Z,2.97
2023-04-15T17:05:42.491Z,3.92
2023-04-15T17:09:04.940Z,3.97
2023-04-15T17:12:27.300Z,3.00
2023-04-15T17:15:49.521Z,3.42
2023-04-15T17:19:13.301Z,3.30
2023-04-15T17:22:35.954Z,3.47
2023-04-15T17:25:57.957Z,2.60
2023-04-15T17:29:20.674Z,2.08
2023-04-15T17:32:42.758Z,2.97
2023-04-15T17:36:07.203Z,3.30
2023-04-15T17:39:29.667Z,3.03
2023-04-15T17:42:51.257Z,2.90
2023-04-15T17:46:13.615Z,2.92
2023-04-15T17:49:37.865Z,3.88
2023-04-15T17:53:02.328Z,4.15
2023-04-15T17:56:24.297Z,4.03
2023-04-15T17:59:47.891Z,3.90
2023-04-15T18:03:10.604Z,3.40
2023-04-15T18:06:32.770Z,3.30
2023-04-15T18:09:56.610Z,3.33
2023-04-15T18:13:19.038Z,3.47
2023-04-15T18:16:42.918Z,4.20
2023-04-15T18:20:05.380Z,4.25
2023-04-15T18:23:28.897Z,3.20
2023-04-15T18:26:53.507Z,3.92
2023-04-15T18:30:15.432Z,2.55
2023-04-15T18:33:37.661Z,3.03
2023-04-15T18:36:59.927Z,3.03
2023-04-15T18:40:21.746Z,2.67
2023-04-15T18:43:44.957Z,3.70
2023-04-15T18:47:07.294Z,2.72
2023-04-15T18:50:29.140Z,2.55
2023-04-15T18:53:50.951Z,3.00
2023-04-15T18:57:13.457Z,3.60
2023-04-15T19:00:41.958Z,2.33
2023-04-15T19:04:03.967Z,3.35
2023-04-15T19:07:26.759Z,2.88
2023-04-15T19:10:49.151Z,2.30
2023-04-15T19:14:11.641Z,2.80
2023-04-15T19:17:34.779Z,3.72
2023-04-15T19:20:57.905Z,4.00
2023-04-15T19:24:20.923Z,3.20
2023-04-15T19:27:43.011Z,3.38
2023-04-15T19:31:06.383Z,3.13
2023-04-15T19:34:29.588Z,2.83
2023-04-15T19:37:51.626Z,2.60
2023-04-15T19:41:13.253Z,3.00
2023-04-15T19:44:35.028Z,2.40
2023-04-15T19:47:57.299Z,2.55
2023-04-15T19:51:20.938Z,2.20
2023-04-15T19:54:42.686Z,2.88
2023-04-15T19:58:04.756Z,2.63
2023-04-15T20:01:27.319Z,2.70
2023-04-15T20:04:49.678Z,2.58
2023-04-15T20:08:13.154Z,2.38
2023-04-15T20:12:46.851Z,2.30
2023-04-15T20:15:17.459Z,2.75
2023-04-15T20:18:39.662Z,2.67
2023-04-15T20:22:01.983Z,2.38
2023-04-15T20:25:25.709Z,2.28
2023-04-15T20:28:47.497Z,2.55
2023-04-15T20:32:11.681Z,2.33
2023-04-15T20:35:33.728Z,2.92
2023-04-15T20:38:55.818Z,1.80
2023-04-15T20:42:19.922Z,2.38
2023-04-15T20:45:41.727Z,2.95
2023-04-15T20:49:03.762Z,2.45
2023-04-15T20:52:26.056Z,3.05
2023-04-15T20:55:48.265Z,2.45
2023-04-15T20:59:11.957Z,2.75
2023-04-15T21:02:33.984Z,3.33
2023-04-15T21:05:55.699Z,2.80
2023-04-15T21:09:17.530Z,2.75
2023-04-15T21:12:40.991Z,2.97
2023-04-15T21:16:04.406Z,3.40
2023-04-15T21:19:26.474Z,2.90
2023-04-15T21:22:48.152Z,2.78
2023-04-15T21:26:10.023Z,3.17
2023-04-15T21:29:31.875Z,2.78
2023-04-15T21:32:55.911Z,2.97
2023-04-15T21:36:17.676Z,3.15
2023-04-15T21:39:39.623Z,2.22
2023-04-15T21:43:01.525Z,2.38
2023-04-15T21:46:25.305Z,2.38
2023-04-15T21:49:50.362Z,2.13
2023-04-15T21:53:12.331Z,2.50
2023-04-15T21:56:34.508Z,2.35
2023-04-15T21:59:56.562Z,2.10
2023-04-15T22:03:18.257Z,2.22
2023-04-15T22:06:41.918Z,4.13
2023-04-15T22:10:03.882Z,2.78
2023-04-15T22:13:26.048Z,3.08
2023-04-15T22:16:48.089Z,1.98
2023-04-15T22:20:10.860Z,2.70
2023-04-15T22:23:34.056Z,2.65
2023-04-15T22:26:55.994Z,2.97
2023-04-15T22:30:18.050Z,2.60
2023-04-15T22:33:39.992Z,2.25
2023-04-15T22:37:01.791Z,3.65
2023-04-15T22:40:25.050Z,2.30
2023-04-15T22:43:47.574Z,2.80
2023-04-15T22:47:09.666Z,2.03
2023-04-15T22:50:31.463Z,2.20
2023-04-15T22:53:53.097Z,3.00
2023-04-15T22:57:16.257Z,2.90
2023-04-15T23:00:38.804Z,2.35
2023-04-15T23:04:09.534Z,2.08
2023-04-15T23:07:42.902Z,2.00
2023-04-15T23:11:04.774Z,2.42
2023-04-15T23:14:28.278Z,2.20
2023-04-15T23:17:51.222Z,2.17
2023-04-15T23:21:12.875Z,2.65
2023-04-15T23:24:34.685Z,2.05
2023-04-15T23:27:56.804Z,2.17
2023-04-15T23:31:20.229Z,1.83
2023-04-15T23:34:42.334Z,2.33
2023-04-15T23:38:04.254Z,2.90
2023-04-15T23:41:25.982Z,2.13
2023-04-15T23:44:47.936Z,2.88
2023-04-15T23:48:11.136Z,2.13
2023-04-15T23:51:33.084Z,1.70
2023-04-15T23:54:55.005Z,1.70
2023-04-15T23:58:16.786Z,2.10
